sensor_id;sensor_type;location;lat;lon;timestamp;P1;durP1;ratioP1;P2;durP2;ratioP2
3747;SDS011;1889;50.058;8.688;2023-06-14T00:00:06;6.00;;;4.67;;
3747;SDS011;1889;50.058;8.688;2023-06-14T00:02:36;4.67;;;4.17;;
3747;SDS011;1889;50.058;8.688;2023-06-14T00:05:07;5.33;;;4.83;;
3747;SDS011;1889;50.058;8.688;2023-06-14T00:07:37;4.73;;;4.30;;
3747;SDS011;1889;50.058;8.688;2023-06-14T00:10:11;5.10;;;4.70;;
3747;SDS011;1889;50.058;8.688;2023-06-14T00:12:40;5.13;;;4.53;;
3747;SDS011;1889;50.058;8.688;2023-06-14T00:15:09;5.57;;;4.63;;
3747;SDS011;1889;50.058;8.688;2023-06-14T00:17:38;6.87;;;4.97;;
3747;SDS011;1889;50.058;8.688;2023-06-14T00:20:08;6.33;;;5.27;;
3747;SDS011;1889;50.058;8.688;2023-06-14T00:22:39;7.97;;;4.80;;
3747;SDS011;1889;50.058;8.688;2023-06-14T00:25:08;5.07;;;4.63;;
3747;SDS011;1889;50.058;8.688;2023-06-14T00:27:37;8.17;;;4.93;;
3747;SDS011;1889;50.058;8.688;2023-06-14T00:30:07;5.33;;;4.83;;
3747;SDS011;1889;50.058;8.688;2023-06-14T00:32:36;4.90;;;4.33;;
3747;SDS011;1889;50.058;8.688;2023-06-14T00:35:06;6.12;;;4.67;;
3747;SDS011;1889;50.058;8.688;2023-06-14T00:37:35;5.10;;;4.60;;
3747;SDS011;1889;50.058;8.688;2023-06-14T00:40:04;5.50;;;4.30;;
3747;SDS011;1889;50.058;8.688;2023-06-14T00:42:34;5.17;;;4.45;;
3747;SDS011;1889;50.058;8.688;2023-06-14T00:45:04;4.77;;;4.37;;
3747;SDS011;1889;50.058;8.688;2023-06-14T00:47:33;6.87;;;4.00;;
3747;SDS011;1889;50.058;8.688;2023-06-14T00:50:06;5.10;;;4.60;;
3747;SDS011;1889;50.058;8.688;2023-06-14T00:52:35;5.00;;;4.50;;
3747;SDS011;1889;50.058;8.688;2023-06-14T00:55:05;6.00;;;4.50;;
3747;SDS011;1889;50.058;8.688;2023-06-14T00:57:34;5.03;;;4.43;;
3747;SDS011;1889;50.058;8.688;2023-06-14T01:00:05;5.10;;;4.10;;
3747;SDS011;1889;50.058;8.688;2023-06-14T01:02:36;4.87;;;4.27;;
3747;SDS011;1889;50.058;8.688;2023-06-14T01:05:06;4.67;;;4.20;;
3747;SDS011;1889;50.058;8.688;2023-06-14T01:07:55;5.37;;;4.33;;
3747;SDS011;1889;50.058;8.688;2023-06-14T01:10:30;4.73;;;4.33;;
3747;SDS011;1889;50.058;8.688;2023-06-14T01:13:20;5.62;;;4.40;;
3747;SDS011;1889;50.058;8.688;2023-06-14T01:15:57;4.87;;;4.40;;
3747;SDS011;1889;50.058;8.688;2023-06-14T01:18:27;5.30;;;4.67;;
3747;SDS011;1889;50.058;8.688;2023-06-14T01:20:57;5.60;;;4.87;;
3747;SDS011;1889;50.058;8.688;2023-06-14T01:23:27;6.30;;;4.62;;
3747;SDS011;1889;50.058;8.688;2023-06-14T01:25:58;5.13;;;4.63;;
3747;SDS011;1889;50.058;8.688;2023-06-14T01:28:30;4.60;;;4.20;;
3747;SDS011;1889;50.058;8.688;2023-06-14T01:31:02;5.62;;;4.53;;
3747;SDS011;1889;50.058;8.688;2023-06-14T01:33:32;6.00;;;4.67;;
3747;SDS011;1889;50.058;8.688;2023-06-14T01:36:03;6.75;;;4.87;;
3747;SDS011;1889;50.058;8.688;2023-06-14T01:38:34;5.77;;;4.03;;
3747;SDS011;1889;50.058;8.688;2023-06-14T01:41:05;6.87;;;4.67;;
3747;SDS011;1889;50.058;8.688;2023-06-14T01:43:34;6.80;;;4.40;;
3747;SDS011;1889;50.058;8.688;2023-06-14T01:46:05;6.62;;;4.33;;
3747;SDS011;1889;50.058;8.688;2023-06-14T01:48:36;6.17;;;4.23;;
3747;SDS011;1889;50.058;8.688;2023-06-14T01:51:05;7.60;;;4.10;;
3747;SDS011;1889;50.058;8.688;2023-06-14T01:53:34;9.03;;;4.87;;
3747;SDS011;1889;50.058;8.688;2023-06-14T01:56:03;4.77;;;4.00;;
3747;SDS011;1889;50.058;8.688;2023-06-14T01:58:33;6.77;;;4.60;;
3747;SDS011;1889;50.058;8.688;2023-06-14T02:01:02;7.40;;;4.07;;
3747;SDS011;1889;50.058;8.688;2023-06-14T02:03:32;4.90;;;4.30;;
3747;SDS011;1889;50.058;8.688;2023-06-14T02:06:01;6.22;;;4.30;;
3747;SDS011;1889;50.058;8.688;2023-06-14T02:08:30;5.03;;;4.50;;
3747;SDS011;1889;50.058;8.688;2023-06-14T02:11:00;5.17;;;4.25;;
3747;SDS011;1889;50.058;8.688;2023-06-14T02:13:29;5.35;;;4.20;;
3747;SDS011;1889;50.058;8.688;2023-06-14T02:15:58;4.97;;;4.25;;
3747;SDS011;1889;50.058;8.688;2023-06-14T02:18:27;4.43;;;4.00;;
3747;SDS011;1889;50.058;8.688;2023-06-14T02:20:57;4.95;;;4.45;;
3747;SDS011;1889;50.058;8.688;2023-06-14T02:23:26;7.37;;;4.40;;
3747;SDS011;1889;50.058;8.688;2023-06-14T02:25:55;5.25;;;4.17;;
3747;SDS011;1889;50.058;8.688;2023-06-14T02:28:24;4.50;;;3.87;;
3747;SDS011;1889;50.058;8.688;2023-06-14T02:30:53;4.50;;;4.10;;
3747;SDS011;1889;50.058;8.688;2023-06-14T02:33:23;6.45;;;4.00;;
3747;SDS011;1889;50.058;8.688;2023-06-14T02:35:53;6.12;;;4.55;;
3747;SDS011;1889;50.058;8.688;2023-06-14T02:38:23;6.90;;;5.12;;
3747;SDS011;1889;50.058;8.688;2023-06-14T02:40:53;9.70;;;5.03;;
3747;SDS011;1889;50.058;8.688;2023-06-14T02:43:22;5.77;;;3.80;;
3747;SDS011;1889;50.058;8.688;2023-06-14T02:45:51;5.30;;;4.33;;
3747;SDS011;1889;50.058;8.688;2023-06-14T02:48:20;6.83;;;3.62;;
3747;SDS011;1889;50.058;8.688;2023-06-14T02:50:50;5.00;;;4.50;;
3747;SDS011;1889;50.058;8.688;2023-06-14T02:53:19;5.03;;;4.53;;
3747;SDS011;1889;50.058;8.688;2023-06-14T02:55:48;5.37;;;4.10;;
3747;SDS011;1889;50.058;8.688;2023-06-14T02:58:18;4.53;;;4.12;;
3747;SDS011;1889;50.058;8.688;2023-06-14T03:00:47;5.20;;;3.70;;
3747;SDS011;1889;50.058;8.688;2023-06-14T03:03:16;4.90;;;3.90;;
3747;SDS011;1889;50.058;8.688;2023-06-14T03:05:47;6.97;;;4.47;;
3747;SDS011;1889;50.058;8.688;2023-06-14T03:08:18;6.22;;;4.60;;
3747;SDS011;1889;50.058;8.688;2023-06-14T03:10:48;5.10;;;4.03;;
3747;SDS011;1889;50.058;8.688;2023-06-14T03:13:17;7.28;;;4.67;;
3747;SDS011;1889;50.058;8.688;2023-06-14T03:15:50;5.62;;;3.87;;
3747;SDS011;1889;50.058;8.688;2023-06-14T03:18:19;5.42;;;4.20;;
3747;SDS011;1889;50.058;8.688;2023-06-14T03:20:50;6.50;;;4.37;;
3747;SDS011;1889;50.058;8.688;2023-06-14T03:23:19;4.50;;;4.10;;
3747;SDS011;1889;50.058;8.688;2023-06-14T03:25:48;5.95;;;4.45;;
3747;SDS011;1889;50.058;8.688;2023-06-14T03:28:18;3.95;;;3.65;;
3747;SDS011;1889;50.058;8.688;2023-06-14T03:30:48;4.40;;;3.75;;
3747;SDS011;1889;50.058;8.688;2023-06-14T03:33:17;7.62;;;4.58;;
3747;SDS011;1889;50.058;8.688;2023-06-14T03:35:47;4.75;;;3.95;;
3747;SDS011;1889;50.058;8.688;2023-06-14T03:38:17;6.53;;;4.47;;
3747;SDS011;1889;50.058;8.688;2023-06-14T03:40:46;7.95;;;4.75;;
3747;SDS011;1889;50.058;8.688;2023-06-14T03:43:15;5.08;;;4.30;;
3747;SDS011;1889;50.058;8.688;2023-06-14T03:45:45;5.40;;;4.12;;
3747;SDS011;1889;50.058;8.688;2023-06-14T03:48:14;6.35;;;3.72;;
3747;SDS011;1889;50.058;8.688;2023-06-14T03:50:43;4.22;;;3.92;;
3747;SDS011;1889;50.058;8.688;2023-06-14T03:53:13;8.03;;;3.80;;
3747;SDS011;1889;50.058;8.688;2023-06-14T03:55:43;7.92;;;3.98;;
3747;SDS011;1889;50.058;8.688;2023-06-14T03:58:12;6.70;;;3.70;;
3747;SDS011;1889;50.058;8.688;2023-06-14T04:00:42;4.22;;;3.83;;
3747;SDS011;1889;50.058;8.688;2023-06-14T04:03:12;5.17;;;4.33;;
3747;SDS011;1889;50.058;8.688;2023-06-14T04:05:43;5.60;;;3.62;;
3747;SDS011;1889;50.058;8.688;2023-06-14T04:08:13;7.30;;;4.22;;
3747;SDS011;1889;50.058;8.688;2023-06-14T04:10:43;5.72;;;4.12;;
3747;SDS011;1889;50.058;8.688;2023-06-14T04:13:12;4.65;;;4.08;;
3747;SDS011;1889;50.058;8.688;2023-06-14T04:15:42;8.10;;;4.35;;
3747;SDS011;1889;50.058;8.688;2023-06-14T04:18:13;4.45;;;3.80;;
3747;SDS011;1889;50.058;8.688;2023-06-14T04:20:42;5.78;;;4.55;;
3747;SDS011;1889;50.058;8.688;2023-06-14T04:23:12;6.95;;;4.10;;
3747;SDS011;1889;50.058;8.688;2023-06-14T04:25:42;7.15;;;4.10;;
3747;SDS011;1889;50.058;8.688;2023-06-14T04:28:16;6.33;;;4.45;;
3747;SDS011;1889;50.058;8.688;2023-06-14T04:30:47;5.22;;;4.72;;
3747;SDS011;1889;50.058;8.688;2023-06-14T04:33:16;4.83;;;4.12;;
3747;SDS011;1889;50.058;8.688;2023-06-14T04:35:45;6.60;;;4.35;;
3747;SDS011;1889;50.058;8.688;2023-06-14T04:38:15;7.43;;;4.37;;
3747;SDS011;1889;50.058;8.688;2023-06-14T04:40:46;4.75;;;4.17;;
3747;SDS011;1889;50.058;8.688;2023-06-14T04:43:15;8.00;;;4.45;;
3747;SDS011;1889;50.058;8.688;2023-06-14T04:45:46;6.60;;;4.17;;
3747;SDS011;1889;50.058;8.688;2023-06-14T04:48:15;4.70;;;3.80;;
3747;SDS011;1889;50.058;8.688;2023-06-14T04:50:46;4.97;;;4.37;;
3747;SDS011;1889;50.058;8.688;2023-06-14T04:53:15;4.33;;;3.92;;
3747;SDS011;1889;50.058;8.688;2023-06-14T04:55:46;6.05;;;4.50;;
3747;SDS011;1889;50.058;8.688;2023-06-14T04:58:16;7.28;;;4.05;;
3747;SDS011;1889;50.058;8.688;2023-06-14T05:00:45;6.80;;;4.22;;
3747;SDS011;1889;50.058;8.688;2023-06-14T05:03:14;4.83;;;4.42;;
3747;SDS011;1889;50.058;8.688;2023-06-14T05:05:45;6.78;;;4.67;;
3747;SDS011;1889;50.058;8.688;2023-06-14T05:08:14;6.00;;;3.97;;
3747;SDS011;1889;50.058;8.688;2023-06-14T05:10:44;5.75;;;4.05;;
3747;SDS011;1889;50.058;8.688;2023-06-14T05:13:13;6.65;;;4.28;;
3747;SDS011;1889;50.058;8.688;2023-06-14T05:15:42;6.05;;;3.87;;
3747;SDS011;1889;50.058;8.688;2023-06-14T05:18:12;17.87;;;4.12;;
3747;SDS011;1889;50.058;8.688;2023-06-14T05:20:42;4.60;;;4.00;;
3747;SDS011;1889;50.058;8.688;2023-06-14T05:23:11;5.40;;;4.37;;
3747;SDS011;1889;50.058;8.688;2023-06-14T05:25:44;5.50;;;4.17;;
3747;SDS011;1889;50.058;8.688;2023-06-14T05:28:13;5.90;;;3.92;;
3747;SDS011;1889;50.058;8.688;2023-06-14T05:30:43;5.60;;;4.03;;
3747;SDS011;1889;50.058;8.688;2023-06-14T05:33:13;7.92;;;4.30;;
3747;SDS011;1889;50.058;8.688;2023-06-14T05:35:42;6.30;;;4.03;;
3747;SDS011;1889;50.058;8.688;2023-06-14T05:38:12;8.23;;;4.45;;
3747;SDS011;1889;50.058;8.688;2023-06-14T05:40:41;7.05;;;4.25;;
3747;SDS011;1889;50.058;8.688;2023-06-14T05:43:11;5.83;;;3.87;;
3747;SDS011;1889;50.058;8.688;2023-06-14T05:45:40;11.30;;;4.20;;
3747;SDS011;1889;50.058;8.688;2023-06-14T05:48:09;5.92;;;4.17;;
3747;SDS011;1889;50.058;8.688;2023-06-14T05:50:39;7.35;;;4.08;;
3747;SDS011;1889;50.058;8.688;2023-06-14T05:53:08;8.00;;;4.20;;
3747;SDS011;1889;50.058;8.688;2023-06-14T05:55:38;6.05;;;3.90;;
3747;SDS011;1889;50.058;8.688;2023-06-14T05:58:07;4.85;;;3.77;;
3747;SDS011;1889;50.058;8.688;2023-06-14T06:00:38;6.00;;;4.10;;
3747;SDS011;1889;50.058;8.688;2023-06-14T06:03:08;7.12;;;4.40;;
3747;SDS011;1889;50.058;8.688;2023-06-14T06:05:38;7.70;;;4.37;;
3747;SDS011;1889;50.058;8.688;2023-06-14T06:08:08;6.37;;;4.47;;
3747;SDS011;1889;50.058;8.688;2023-06-14T06:10:38;4.60;;;4.20;;
3747;SDS011;1889;50.058;8.688;2023-06-14T06:13:07;7.40;;;4.30;;
3747;SDS011;1889;50.058;8.688;2023-06-14T06:15:36;8.10;;;4.60;;
3747;SDS011;1889;50.058;8.688;2023-06-14T06:18:06;7.62;;;4.00;;
3747;SDS011;1889;50.058;8.688;2023-06-14T06:20:35;4.47;;;3.52;;
3747;SDS011;1889;50.058;8.688;2023-06-14T06:23:04;6.22;;;4.62;;
3747;SDS011;1889;50.058;8.688;2023-06-14T06:25:35;5.72;;;4.03;;
3747;SDS011;1889;50.058;8.688;2023-06-14T06:28:04;6.17;;;4.10;;
3747;SDS011;1889;50.058;8.688;2023-06-14T06:30:34;6.87;;;3.87;;
3747;SDS011;1889;50.058;8.688;2023-06-14T06:33:04;4.62;;;4.05;;
3747;SDS011;1889;50.058;8.688;2023-06-14T06:35:33;7.85;;;3.75;;
3747;SDS011;1889;50.058;8.688;2023-06-14T06:38:02;5.90;;;4.10;;
3747;SDS011;1889;50.058;8.688;2023-06-14T06:40:32;4.92;;;4.17;;
3747;SDS011;1889;50.058;8.688;2023-06-14T06:43:02;4.25;;;3.80;;
3747;SDS011;1889;50.058;8.688;2023-06-14T06:45:31;6.05;;;4.40;;
3747;SDS011;1889;50.058;8.688;2023-06-14T06:48:00;6.33;;;4.30;;
3747;SDS011;1889;50.058;8.688;2023-06-14T06:50:30;5.53;;;3.92;;
3747;SDS011;1889;50.058;8.688;2023-06-14T06:52:59;5.33;;;3.45;;
3747;SDS011;1889;50.058;8.688;2023-06-14T06:55:28;6.42;;;4.12;;
3747;SDS011;1889;50.058;8.688;2023-06-14T06:57:58;4.20;;;3.80;;
3747;SDS011;1889;50.058;8.688;2023-06-14T07:00:27;4.73;;;3.53;;
3747;SDS011;1889;50.058;8.688;2023-06-14T07:02:57;4.10;;;3.70;;
3747;SDS011;1889;50.058;8.688;2023-06-14T07:05:26;5.83;;;3.77;;
3747;SDS011;1889;50.058;8.688;2023-06-14T07:07:56;5.47;;;4.90;;
3747;SDS011;1889;50.058;8.688;2023-06-14T07:10:25;5.72;;;3.42;;
3747;SDS011;1889;50.058;8.688;2023-06-14T07:12:54;4.22;;;3.83;;
3747;SDS011;1889;50.058;8.688;2023-06-14T07:15:24;6.05;;;3.42;;
3747;SDS011;1889;50.058;8.688;2023-06-14T07:17:53;4.00;;;2.80;;
3747;SDS011;1889;50.058;8.688;2023-06-14T07:20:23;4.10;;;2.90;;
3747;SDS011;1889;50.058;8.688;2023-06-14T07:22:53;3.70;;;2.98;;
3747;SDS011;1889;50.058;8.688;2023-06-14T07:25:22;4.83;;;2.73;;
3747;SDS011;1889;50.058;8.688;2023-06-14T07:27:51;3.95;;;2.70;;
3747;SDS011;1889;50.058;8.688;2023-06-14T07:30:20;3.90;;;2.80;;
3747;SDS011;1889;50.058;8.688;2023-06-14T07:32:52;4.08;;;2.55;;
3747;SDS011;1889;50.058;8.688;2023-06-14T07:35:21;3.27;;;2.77;;
3747;SDS011;1889;50.058;8.688;2023-06-14T07:37:50;5.50;;;2.52;;
3747;SDS011;1889;50.058;8.688;2023-06-14T07:40:20;5.50;;;2.53;;
3747;SDS011;1889;50.058;8.688;2023-06-14T07:42:49;3.40;;;2.37;;
3747;SDS011;1889;50.058;8.688;2023-06-14T07:45:18;2.70;;;2.40;;
3747;SDS011;1889;50.058;8.688;2023-06-14T07:47:47;2.43;;;2.23;;
3747;SDS011;1889;50.058;8.688;2023-06-14T07:50:16;3.45;;;2.77;;
3747;SDS011;1889;50.058;8.688;2023-06-14T07:52:45;4.93;;;2.73;;
3747;SDS011;1889;50.058;8.688;2023-06-14T07:55:15;3.23;;;2.40;;
3747;SDS011;1889;50.058;8.688;2023-06-14T07:57:44;5.70;;;2.53;;
3747;SDS011;1889;50.058;8.688;2023-06-14T08:00:13;2.47;;;2.27;;
3747;SDS011;1889;50.058;8.688;2023-06-14T08:02:43;3.83;;;2.80;;
3747;SDS011;1889;50.058;8.688;2023-06-14T08:05:13;4.33;;;2.40;;
3747;SDS011;1889;50.058;8.688;2023-06-14T08:07:42;2.40;;;2.20;;
3747;SDS011;1889;50.058;8.688;2023-06-14T08:10:11;3.23;;;2.13;;
3747;SDS011;1889;50.058;8.688;2023-06-14T08:12:40;3.80;;;2.10;;
3747;SDS011;1889;50.058;8.688;2023-06-14T08:15:09;5.93;;;2.60;;
3747;SDS011;1889;50.058;8.688;2023-06-14T08:17:38;1.80;;;1.70;;
3747;SDS011;1889;50.058;8.688;2023-06-14T08:20:07;2.87;;;2.00;;
3747;SDS011;1889;50.058;8.688;2023-06-14T08:22:37;2.80;;;2.00;;
3747;SDS011;1889;50.058;8.688;2023-06-14T08:25:08;3.63;;;2.00;;
3747;SDS011;1889;50.058;8.688;2023-06-14T08:27:39;1.70;;;1.60;;
3747;SDS011;1889;50.058;8.688;2023-06-14T08:30:09;2.75;;;1.98;;
3747;SDS011;1889;50.058;8.688;2023-06-14T08:32:39;3.27;;;2.53;;
3747;SDS011;1889;50.058;8.688;2023-06-14T08:35:08;2.40;;;2.20;;
3747;SDS011;1889;50.058;8.688;2023-06-14T08:37:43;3.35;;;2.50;;
3747;SDS011;1889;50.058;8.688;2023-06-14T08:40:19;2.57;;;2.30;;
3747;SDS011;1889;50.058;8.688;2023-06-14T08:42:51;4.37;;;2.00;;
3747;SDS011;1889;50.058;8.688;2023-06-14T08:45:21;4.03;;;2.00;;
3747;SDS011;1889;50.058;8.688;2023-06-14T08:47:51;4.00;;;1.93;;
3747;SDS011;1889;50.058;8.688;2023-06-14T08:50:23;2.10;;;1.90;;
3747;SDS011;1889;50.058;8.688;2023-06-14T08:52:58;1.97;;;1.70;;
3747;SDS011;1889;50.058;8.688;2023-06-14T08:55:30;1.90;;;1.70;;
3747;SDS011;1889;50.058;8.688;2023-06-14T08:58:00;3.13;;;1.93;;
3747;SDS011;1889;50.058;8.688;2023-06-14T09:00:30;2.60;;;1.93;;
3747;SDS011;1889;50.058;8.688;2023-06-14T09:03:00;1.57;;;1.47;;
3747;SDS011;1889;50.058;8.688;2023-06-14T09:05:30;3.80;;;1.60;;
3747;SDS011;1889;50.058;8.688;2023-06-14T09:07:59;1.90;;;1.73;;
3747;SDS011;1889;50.058;8.688;2023-06-14T09:10:28;1.50;;;1.40;;
3747;SDS011;1889;50.058;8.688;2023-06-14T09:13:04;6.07;;;2.20;;
3747;SDS011;1889;50.058;8.688;2023-06-14T09:15:34;4.03;;;1.97;;
3747;SDS011;1889;50.058;8.688;2023-06-14T09:18:03;5.73;;;2.40;;
3747;SDS011;1889;50.058;8.688;2023-06-14T09:20:33;3.33;;;2.40;;
3747;SDS011;1889;50.058;8.688;2023-06-14T09:23:03;4.43;;;2.57;;
3747;SDS011;1889;50.058;8.688;2023-06-14T09:25:43;2.30;;;2.10;;
3747;SDS011;1889;50.058;8.688;2023-06-14T09:28:14;2.23;;;1.60;;
3747;SDS011;1889;50.058;8.688;2023-06-14T09:30:43;2.30;;;1.73;;
3747;SDS011;1889;50.058;8.688;2023-06-14T09:33:16;3.47;;;1.90;;
3747;SDS011;1889;50.058;8.688;2023-06-14T09:35:46;2.90;;;1.87;;
3747;SDS011;1889;50.058;8.688;2023-06-14T09:38:16;2.10;;;1.80;;
3747;SDS011;1889;50.058;8.688;2023-06-14T09:40:46;1.87;;;1.67;;
3747;SDS011;1889;50.058;8.688;2023-06-14T09:43:15;2.23;;;1.93;;
3747;SDS011;1889;50.058;8.688;2023-06-14T09:45:44;4.17;;;2.20;;
3747;SDS011;1889;50.058;8.688;2023-06-14T09:48:14;2.43;;;2.20;;
3747;SDS011;1889;50.058;8.688;2023-06-14T09:50:45;2.07;;;1.87;;
3747;SDS011;1889;50.058;8.688;2023-06-14T09:53:15;1.77;;;1.67;;
3747;SDS011;1889;50.058;8.688;2023-06-14T09:55:47;3.60;;;2.10;;
3747;SDS011;1889;50.058;8.688;2023-06-14T09:58:20;2.00;;;1.90;;
3747;SDS011;1889;50.058;8.688;2023-06-14T10:00:50;2.10;;;1.90;;
3747;SDS011;1889;50.058;8.688;2023-06-14T10:03:28;2.00;;;1.73;;
3747;SDS011;1889;50.058;8.688;2023-06-14T10:05:58;4.30;;;2.23;;
3747;SDS011;1889;50.058;8.688;2023-06-14T10:08:31;2.00;;;1.90;;
3747;SDS011;1889;50.058;8.688;2023-06-14T10:11:02;2.43;;;1.90;;
3747;SDS011;1889;50.058;8.688;2023-06-14T10:13:32;9.83;;;2.30;;
3747;SDS011;1889;50.058;8.688;2023-06-14T10:16:23;1.90;;;1.80;;
3747;SDS011;1889;50.058;8.688;2023-06-14T10:18:49;2.77;;;1.70;;
3747;SDS011;1889;50.058;8.688;2023-06-14T10:21:39;2.20;;;2.10;;
3747;SDS011;1889;50.058;8.688;2023-06-14T10:24:27;2.00;;;1.87;;
3747;SDS011;1889;50.058;8.688;2023-06-14T10:26:59;2.20;;;2.00;;
3747;SDS011;1889;50.058;8.688;2023-06-14T10:29:28;2.30;;;2.10;;
3747;SDS011;1889;50.058;8.688;2023-06-14T10:31:59;2.73;;;2.40;;
3747;SDS011;1889;50.058;8.688;2023-06-14T10:34:30;3.03;;;2.17;;
3747;SDS011;1889;50.058;8.688;2023-06-14T10:37:00;2.80;;;2.00;;
3747;SDS011;1889;50.058;8.688;2023-06-14T10:39:31;3.97;;;2.43;;
3747;SDS011;1889;50.058;8.688;2023-06-14T10:42:02;12.57;;;3.63;;
3747;SDS011;1889;50.058;8.688;2023-06-14T10:44:33;3.47;;;2.13;;
3747;SDS011;1889;50.058;8.688;2023-06-14T10:47:20;3.67;;;2.33;;
3747;SDS011;1889;50.058;8.688;2023-06-14T10:49:42;3.67;;;2.67;;
3747;SDS011;1889;50.058;8.688;2023-06-14T10:52:13;2.30;;;2.10;;
3747;SDS011;1889;50.058;8.688;2023-06-14T10:57:38;5.00;;;2.73;;
3747;SDS011;1889;50.058;8.688;2023-06-14T11:00:03;2.70;;;1.90;;
3747;SDS011;1889;50.058;8.688;2023-06-14T11:03:02;2.33;;;2.13;;
3747;SDS011;1889;50.058;8.688;2023-06-14T11:05:28;2.20;;;2.00;;
3747;SDS011;1889;50.058;8.688;2023-06-14T11:08:12;3.20;;;1.90;;
3747;SDS011;1889;50.058;8.688;2023-06-14T11:10:45;4.17;;;2.03;;
3747;SDS011;1889;50.058;8.688;2023-06-14T11:13:16;2.63;;;2.10;;
3747;SDS011;1889;50.058;8.688;2023-06-14T11:15:48;4.03;;;2.30;;
3747;SDS011;1889;50.058;8.688;2023-06-14T11:18:18;2.47;;;2.10;;
3747;SDS011;1889;50.058;8.688;2023-06-14T11:20:49;3.67;;;2.03;;
3747;SDS011;1889;50.058;8.688;2023-06-14T11:23:18;1.97;;;1.77;;
3747;SDS011;1889;50.058;8.688;2023-06-14T11:25:50;5.00;;;2.00;;
3747;SDS011;1889;50.058;8.688;2023-06-14T11:28:20;2.00;;;1.90;;
3747;SDS011;1889;50.058;8.688;2023-06-14T11:31:00;2.23;;;1.80;;
3747;SDS011;1889;50.058;8.688;2023-06-14T11:33:31;3.43;;;1.70;;
3747;SDS011;1889;50.058;8.688;2023-06-14T11:36:02;3.93;;;1.87;;
3747;SDS011;1889;50.058;8.688;2023-06-14T11:38:36;2.23;;;1.90;;
3747;SDS011;1889;50.058;8.688;2023-06-14T11:41:05;3.20;;;2.13;;
3747;SDS011;1889;50.058;8.688;2023-06-14T11:43:34;2.30;;;2.10;;
3747;SDS011;1889;50.058;8.688;2023-06-14T11:46:04;1.97;;;1.80;;
3747;SDS011;1889;50.058;8.688;2023-06-14T11:48:39;3.90;;;2.43;;
3747;SDS011;1889;50.058;8.688;2023-06-14T11:51:09;1.63;;;1.53;;
3747;SDS011;1889;50.058;8.688;2023-06-14T11:53:38;2.33;;;2.17;;
3747;SDS011;1889;50.058;8.688;2023-06-14T11:56:08;4.47;;;2.10;;
3747;SDS011;1889;50.058;8.688;2023-06-14T11:58:37;5.33;;;2.03;;
3747;SDS011;1889;50.058;8.688;2023-06-14T12:01:07;1.97;;;1.77;;
3747;SDS011;1889;50.058;8.688;2023-06-14T12:03:36;2.90;;;1.97;;
3747;SDS011;1889;50.058;8.688;2023-06-14T12:06:05;1.70;;;1.60;;
3747;SDS011;1889;50.058;8.688;2023-06-14T12:08:36;4.00;;;2.10;;
3747;SDS011;1889;50.058;8.688;2023-06-14T12:11:12;3.37;;;1.97;;
3747;SDS011;1889;50.058;8.688;2023-06-14T12:13:42;3.00;;;2.30;;
3747;SDS011;1889;50.058;8.688;2023-06-14T12:16:12;3.10;;;2.57;;
3747;SDS011;1889;50.058;8.688;2023-06-14T12:18:41;2.90;;;2.23;;
3747;SDS011;1889;50.058;8.688;2023-06-14T12:21:10;4.13;;;2.43;;
3747;SDS011;1889;50.058;8.688;2023-06-14T12:26:14;2.97;;;2.57;;
3747;SDS011;1889;50.058;8.688;2023-06-14T12:28:44;3.60;;;2.77;;
3747;SDS011;1889;50.058;8.688;2023-06-14T12:31:15;4.23;;;3.67;;
3747;SDS011;1889;50.058;8.688;2023-06-14T12:33:46;4.80;;;2.77;;
3747;SDS011;1889;50.058;8.688;2023-06-14T12:36:16;3.33;;;2.60;;
3747;SDS011;1889;50.058;8.688;2023-06-14T12:38:45;4.73;;;2.63;;
3747;SDS011;1889;50.058;8.688;2023-06-14T12:41:14;4.30;;;2.70;;
3747;SDS011;1889;50.058;8.688;2023-06-14T12:43:43;3.03;;;2.43;;
3747;SDS011;1889;50.058;8.688;2023-06-14T12:46:12;2.70;;;2.50;;
3747;SDS011;1889;50.058;8.688;2023-06-14T12:48:41;4.47;;;2.77;;
3747;SDS011;1889;50.058;8.688;2023-06-14T12:51:10;2.80;;;2.50;;
3747;SDS011;1889;50.058;8.688;2023-06-14T12:53:40;4.87;;;2.80;;
3747;SDS011;1889;50.058;8.688;2023-06-14T12:56:09;3.33;;;2.77;;
3747;SDS011;1889;50.058;8.688;2023-06-14T12:58:38;3.10;;;2.80;;
3747;SDS011;1889;50.058;8.688;2023-06-14T13:01:07;2.87;;;2.67;;
3747;SDS011;1889;50.058;8.688;2023-06-14T13:03:36;4.67;;;2.50;;
3747;SDS011;1889;50.058;8.688;2023-06-14T13:06:05;2.53;;;2.33;;
3747;SDS011;1889;50.058;8.688;2023-06-14T13:08:34;4.60;;;2.33;;
3747;SDS011;1889;50.058;8.688;2023-06-14T13:11:03;2.50;;;2.30;;
3747;SDS011;1889;50.058;8.688;2023-06-14T13:13:32;3.20;;;2.20;;
3747;SDS011;1889;50.058;8.688;2023-06-14T13:16:01;2.67;;;2.27;;
3747;SDS011;1889;50.058;8.688;2023-06-14T13:18:30;2.53;;;2.33;;
3747;SDS011;1889;50.058;8.688;2023-06-14T13:20:59;2.60;;;2.30;;
3747;SDS011;1889;50.058;8.688;2023-06-14T13:23:28;3.03;;;2.40;;
3747;SDS011;1889;50.058;8.688;2023-06-14T13:25:57;4.03;;;2.73;;
3747;SDS011;1889;50.058;8.688;2023-06-14T13:28:26;2.87;;;2.60;;
3747;SDS011;1889;50.058;8.688;2023-06-14T13:30:55;2.97;;;2.77;;
3747;SDS011;1889;50.058;8.688;2023-06-14T13:33:24;2.80;;;2.47;;
3747;SDS011;1889;50.058;8.688;2023-06-14T13:35:53;3.20;;;2.17;;
3747;SDS011;1889;50.058;8.688;2023-06-14T13:38:22;3.27;;;2.53;;
3747;SDS011;1889;50.058;8.688;2023-06-14T13:40:51;6.27;;;2.30;;
3747;SDS011;1889;50.058;8.688;2023-06-14T13:43:21;2.70;;;2.50;;
3747;SDS011;1889;50.058;8.688;2023-06-14T13:45:50;5.77;;;2.60;;
3747;SDS011;1889;50.058;8.688;2023-06-14T13:48:19;3.43;;;2.00;;
3747;SDS011;1889;50.058;8.688;2023-06-14T13:50:49;3.90;;;2.17;;
3747;SDS011;1889;50.058;8.688;2023-06-14T13:53:18;2.67;;;2.10;;
3747;SDS011;1889;50.058;8.688;2023-06-14T13:55:47;2.17;;;2.03;;
3747;SDS011;1889;50.058;8.688;2023-06-14T13:58:16;2.73;;;2.20;;
3747;SDS011;1889;50.058;8.688;2023-06-14T14:00:45;2.37;;;2.00;;
3747;SDS011;1889;50.058;8.688;2023-06-14T14:03:14;2.57;;;1.70;;
3747;SDS011;1889;50.058;8.688;2023-06-14T14:05:43;3.20;;;2.87;;
3747;SDS011;1889;50.058;8.688;2023-06-14T14:08:12;3.07;;;2.43;;
3747;SDS011;1889;50.058;8.688;2023-06-14T14:10:41;4.70;;;2.40;;
3747;SDS011;1889;50.058;8.688;2023-06-14T14:13:10;3.03;;;2.40;;
3747;SDS011;1889;50.058;8.688;2023-06-14T14:15:39;3.40;;;2.23;;
3747;SDS011;1889;50.058;8.688;2023-06-14T14:18:08;3.03;;;1.97;;
3747;SDS011;1889;50.058;8.688;2023-06-14T14:20:38;2.33;;;2.13;;
3747;SDS011;1889;50.058;8.688;2023-06-14T14:23:07;3.30;;;2.30;;
3747;SDS011;1889;50.058;8.688;2023-06-14T14:25:36;2.70;;;2.47;;
3747;SDS011;1889;50.058;8.688;2023-06-14T14:28:05;3.90;;;2.23;;
3747;SDS011;1889;50.058;8.688;2023-06-14T14:30:34;3.23;;;1.97;;
3747;SDS011;1889;50.058;8.688;2023-06-14T14:33:05;3.70;;;2.07;;
3747;SDS011;1889;50.058;8.688;2023-06-14T14:35:34;6.67;;;2.30;;
3747;SDS011;1889;50.058;8.688;2023-06-14T14:38:04;4.63;;;2.20;;
3747;SDS011;1889;50.058;8.688;2023-06-14T14:40:33;2.80;;;2.07;;
3747;SDS011;1889;50.058;8.688;2023-06-14T14:43:02;4.00;;;2.07;;
3747;SDS011;1889;50.058;8.688;2023-06-14T14:45:32;2.77;;;1.90;;
3747;SDS011;1889;50.058;8.688;2023-06-14T14:48:01;2.40;;;2.20;;
3747;SDS011;1889;50.058;8.688;2023-06-14T14:50:30;3.30;;;3.00;;
3747;SDS011;1889;50.058;8.688;2023-06-14T14:53:00;2.27;;;1.93;;
3747;SDS011;1889;50.058;8.688;2023-06-14T14:55:29;4.53;;;2.53;;
3747;SDS011;1889;50.058;8.688;2023-06-14T14:57:59;2.50;;;2.00;;
3747;SDS011;1889;50.058;8.688;2023-06-14T15:00:29;3.90;;;2.20;;
3747;SDS011;1889;50.058;8.688;2023-06-14T15:02:58;5.53;;;2.37;;
3747;SDS011;1889;50.058;8.688;2023-06-14T15:05:27;5.77;;;3.63;;
3747;SDS011;1889;50.058;8.688;2023-06-14T15:07:56;5.57;;;2.97;;
3747;SDS011;1889;50.058;8.688;2023-06-14T15:10:25;2.87;;;2.20;;
3747;SDS011;1889;50.058;8.688;2023-06-14T15:12:54;2.70;;;2.40;;
3747;SDS011;1889;50.058;8.688;2023-06-14T15:15:23;2.83;;;1.83;;
3747;SDS011;1889;50.058;8.688;2023-06-14T15:17:52;3.53;;;2.47;;
3747;SDS011;1889;50.058;8.688;2023-06-14T15:20:21;3.67;;;2.67;;
3747;SDS011;1889;50.058;8.688;2023-06-14T15:22:50;2.97;;;2.67;;
3747;SDS011;1889;50.058;8.688;2023-06-14T15:25:19;2.53;;;2.20;;
3747;SDS011;1889;50.058;8.688;2023-06-14T15:27:48;3.10;;;2.90;;
3747;SDS011;1889;50.058;8.688;2023-06-14T15:30:17;2.80;;;2.10;;
3747;SDS011;1889;50.058;8.688;2023-06-14T15:32:46;4.00;;;2.23;;
3747;SDS011;1889;50.058;8.688;2023-06-14T15:35:16;18.07;;;16.17;;
3747;SDS011;1889;50.058;8.688;2023-06-14T15:37:47;22.90;;;20.60;;